sensor_id;sensor_type;location;lat;lon;timestamp;temperature;humidity
12223;DHT22;6174;49.058;8.524;2024-03-23T07:20:13;10.10;99.90
12223;DHT22;6174;49.058;8.524;2024-03-23T07:23:20;10.00;99.90
12223;DHT22;6174;49.058;8.524;2024-03-23T09:14:22;10.50;93.40
12223;DHT22;6174;49.058;8.524;2024-03-23T09:22:36;10.70;92.90
12223;DHT22;6174;49.058;8.524;2024-03-23T13:04:49;11.70;91.70
12223;DHT22;6174;49.058;8.524;2024-03-23T13:07:22;9.20;93.10
12223;DHT22;6174;49.058;8.524;2024-03-23T13:09:59;8.70;95.50
12223;DHT22;6174;49.058;8.524;2024-03-23T13:12:26;7.80;99.90
12223;DHT22;6174;49.058;8.524;2024-03-23T13:14:53;7.30;99.90
12223;DHT22;6174;49.058;8.524;2024-03-23T13:17:19;7.10;99.90
12223;DHT22;6174;49.058;8.524;2024-03-23T13:19:50;7.20;99.90
12223;DHT22;6174;49.058;8.524;2024-03-23T13:22:17;8.10;99.90
12223;DHT22;6174;49.058;8.524;2024-03-23T13:24:46;8.40;99.90
12223;DHT22;6174;49.058;8.524;2024-03-23T13:27:12;9.20;99.90
12223;DHT22;6174;49.058;8.524;2024-03-23T13:29:46;10.00;97.50
12223;DHT22;6174;49.058;8.524;2024-03-23T13:32:17;10.20;93.70
12223;DHT22;6174;49.058;8.524;2024-03-23T13:35:10;11.00;92.20
12223;DHT22;6174;49.058;8.524;2024-03-23T13:37:47;11.30;92.60
12223;DHT22;6174;49.058;8.524;2024-03-23T13:40:30;11.50;91.20
12223;DHT22;6174;49.058;8.524;2024-03-23T13:43:06;10.60;90.30
12223;DHT22;6174;49.058;8.524;2024-03-23T13:45:32;10.20;90.60
12223;DHT22;6174;49.058;8.524;2024-03-23T13:48:00;10.00;91.20
12223;DHT22;6174;49.058;8.524;2024-03-23T13:50:27;9.90;91.60
12223;DHT22;6174;49.058;8.524;2024-03-23T13:53:02;9.80;92.20
12223;DHT22;6174;49.058;8.524;2024-03-23T13:55:30;10.00;92.50
12223;DHT22;6174;49.058;8.524;2024-03-23T13:58:02;10.00;91.90
12223;DHT22;6174;49.058;8.524;2024-03-23T14:00:30;10.10;92.00
12223;DHT22;6174;49.058;8.524;2024-03-23T14:03:01;10.90;92.30
12223;DHT22;6174;49.058;8.524;2024-03-23T14:05:54;11.10;90.60
12223;DHT22;6174;49.058;8.524;2024-03-23T14:08:30;10.70;90.80
12223;DHT22;6174;49.058;8.524;2024-03-23T14:11:04;10.40;91.40
12223;DHT22;6174;49.058;8.524;2024-03-23T14:13:32;10.10;91.70
12223;DHT22;6174;49.058;8.524;2024-03-23T14:16:03;10.00;92.50
12223;DHT22;6174;49.058;8.524;2024-03-23T14:21:18;9.80;94.50
12223;DHT22;6174;49.058;8.524;2024-03-23T14:23:45;10.00;94.50
12223;DHT22;6174;49.058;8.524;2024-03-23T14:26:20;10.60;92.90
12223;DHT22;6174;49.058;8.524;2024-03-23T14:28:48;9.90;93.40
12223;DHT22;6174;49.058;8.524;2024-03-23T14:31:39;10.40;92.80
12223;DHT22;6174;49.058;8.524;2024-03-23T14:34:21;10.40;91.50
12223;DHT22;6174;49.058;8.524;2024-03-23T14:36:51;10.40;91.80
12223;DHT22;6174;49.058;8.524;2024-03-23T14:39:17;10.10;91.40
12223;DHT22;6174;49.058;8.524;2024-03-23T14:41:50;10.10;92.40
12223;DHT22;6174;49.058;8.524;2024-03-23T14:44:20;10.20;92.70
12223;DHT22;6174;49.058;8.524;2024-03-23T14:47:00;10.30;92.50
12223;DHT22;6174;49.058;8.524;2024-03-23T14:49:36;11.40;90.10
12223;DHT22;6174;49.058;8.524;2024-03-23T14:52:05;12.30;87.20
12223;DHT22;6174;49.058;8.524;2024-03-23T14:54:34;12.40;84.80
12223;DHT22;6174;49.058;8.524;2024-03-23T14:57:02;11.80;86.10
12223;DHT22;6174;49.058;8.524;2024-03-23T14:59:29;11.40;87.50
12223;DHT22;6174;49.058;8.524;2024-03-23T15:02:01;11.30;88.70
12223;DHT22;6174;49.058;8.524;2024-03-23T15:04:31;11.20;85.50
12223;DHT22;6174;49.058;8.524;2024-03-23T15:06:59;11.40;88.00
12223;DHT22;6174;49.058;8.524;2024-03-23T15:09:33;11.10;85.80
12223;DHT22;6174;49.058;8.524;2024-03-23T15:11:59;11.10;87.10
12223;DHT22;6174;49.058;8.524;2024-03-23T15:14:26;11.10;87.20
12223;DHT22;6174;49.058;8.524;2024-03-23T15:17:01;10.50;87.30
12223;DHT22;6174;49.058;8.524;2024-03-23T15:19:35;10.00;89.10
12223;DHT22;6174;49.058;8.524;2024-03-23T15:22:01;10.20;89.80
12223;DHT22;6174;49.058;8.524;2024-03-23T15:24:39;10.40;90.10
12223;DHT22;6174;49.058;8.524;2024-03-23T15:27:05;10.70;90.40
12223;DHT22;6174;49.058;8.524;2024-03-23T15:29:34;10.50;90.80
12223;DHT22;6174;49.058;8.524;2024-03-23T15:32:03;10.30;91.20
12223;DHT22;6174;49.058;8.524;2024-03-23T15:34:45;10.10;91.40
12223;DHT22;6174;49.058;8.524;2024-03-23T15:37:11;10.00;91.70
12223;DHT22;6174;49.058;8.524;2024-03-23T15:39:59;10.20;92.40
12223;DHT22;6174;49.058;8.524;2024-03-23T15:42:25;9.80;92.60
12223;DHT22;6174;49.058;8.524;2024-03-23T15:44:51;9.70;92.60
12223;DHT22;6174;49.058;8.524;2024-03-23T15:47:18;9.70;92.80
12223;DHT22;6174;49.058;8.524;2024-03-23T15:49:46;9.80;93.30
12223;DHT22;6174;49.058;8.524;2024-03-23T15:52:13;9.50;93.80
12223;DHT22;6174;49.058;8.524;2024-03-23T15:54:39;9.40;95.90
12223;DHT22;6174;49.058;8.524;2024-03-23T15:57:21;9.20;96.80
12223;DHT22;6174;49.058;8.524;2024-03-23T15:59:49;9.00;96.80
12223;DHT22;6174;49.058;8.524;2024-03-23T16:02:14;9.30;97.60
12223;DHT22;6174;49.058;8.524;2024-03-23T16:04:41;8.80;99.10
12223;DHT22;6174;49.058;8.524;2024-03-23T16:07:08;8.40;99.90
12223;DHT22;6174;49.058;8.524;2024-03-23T16:09:35;8.20;99.90
12223;DHT22;6174;49.058;8.524;2024-03-23T16:12:01;8.20;99.90
12223;DHT22;6174;49.058;8.524;2024-03-23T16:14:29;8.00;99.90
12223;DHT22;6174;49.058;8.524;2024-03-23T16:17:00;8.10;99.90
12223;DHT22;6174;49.058;8.524;2024-03-23T16:19:33;8.20;99.90
12223;DHT22;6174;49.058;8.524;2024-03-23T16:22:00;8.30;99.90
12223;DHT22;6174;49.058;8.524;2024-03-23T16:24:29;6.60;99.90
12223;DHT22;6174;49.058;8.524;2024-03-23T16:26:55;5.60;99.90
12223;DHT22;6174;49.058;8.524;2024-03-23T16:29:22;4.60;99.90
12223;DHT22;6174;49.058;8.524;2024-03-23T16:31:50;4.70;99.90
12223;DHT22;6174;49.058;8.524;2024-03-23T16:34:19;4.50;99.90
12223;DHT22;6174;49.058;8.524;2024-03-23T16:36:45;4.70;99.90
12223;DHT22;6174;49.058;8.524;2024-03-23T16:39:13;4.90;99.90
12223;DHT22;6174;49.058;8.524;2024-03-23T16:41:40;5.00;99.90
12223;DHT22;6174;49.058;8.524;2024-03-23T16:44:07;5.20;99.90
12223;DHT22;6174;49.058;8.524;2024-03-23T16:46:33;5.30;99.90
12223;DHT22;6174;49.058;8.524;2024-03-23T16:49:02;5.00;99.90
12223;DHT22;6174;49.058;8.524;2024-03-23T16:51:28;5.30;99.90
12223;DHT22;6174;49.058;8.524;2024-03-23T16:53:55;5.70;99.90
12223;DHT22;6174;49.058;8.524;2024-03-23T16:56:22;5.70;99.90
12223;DHT22;6174;49.058;8.524;2024-03-23T16:58:49;5.50;99.90
12223;DHT22;6174;49.058;8.524;2024-03-23T17:01:15;6.10;99.90
12223;DHT22;6174;49.058;8.524;2024-03-23T17:03:46;5.90;99.90
12223;DHT22;6174;49.058;8.524;2024-03-23T17:06:14;5.80;99.90
12223;DHT22;6174;49.058;8.524;2024-03-23T17:08:42;5.90;99.90
12223;DHT22;6174;49.058;8.524;2024-03-23T17:11:09;5.90;99.90
12223;DHT22;6174;49.058;8.524;2024-03-23T17:13:35;5.90;99.90
12223;DHT22;6174;49.058;8.524;2024-03-23T17:16:03;5.90;99.90
12223;DHT22;6174;49.058;8.524;2024-03-23T17:18:29;5.90;99.90
12223;DHT22;6174;49.058;8.524;2024-03-23T17:20:56;5.80;99.90
12223;DHT22;6174;49.058;8.524;2024-03-23T17:23:25;5.80;99.90
12223;DHT22;6174;49.058;8.524;2024-03-23T17:25:52;5.80;99.90
12223;DHT22;6174;49.058;8.524;2024-03-23T17:28:18;6.30;99.90
12223;DHT22;6174;49.058;8.524;2024-03-23T17:30:45;6.00;99.90
12223;DHT22;6174;49.058;8.524;2024-03-23T17:33:12;5.90;99.90
12223;DHT22;6174;49.058;8.524;2024-03-23T17:35:39;6.10;99.90
12223;DHT22;6174;49.058;8.524;2024-03-23T17:38:05;6.10;99.90
12223;DHT22;6174;49.058;8.524;2024-03-23T17:40:34;6.30;99.90
12223;DHT22;6174;49.058;8.524;2024-03-23T17:43:00;6.30;99.90
12223;DHT22;6174;49.058;8.524;2024-03-23T17:45:27;6.40;99.90
12223;DHT22;6174;49.058;8.524;2024-03-23T17:47:52;6.30;99.90
12223;DHT22;6174;49.058;8.524;2024-03-23T17:50:21;6.30;99.90
12223;DHT22;6174;49.058;8.524;2024-03-23T17:52:46;6.30;99.90
12223;DHT22;6174;49.058;8.524;2024-03-23T17:55:14;6.20;99.90
12223;DHT22;6174;49.058;8.524;2024-03-23T17:57:41;6.30;99.90
12223;DHT22;6174;49.058;8.524;2024-03-23T18:00:09;6.50;99.90
12223;DHT22;6174;49.058;8.524;2024-03-23T18:02:37;6.30;99.90
12223;DHT22;6174;49.058;8.524;2024-03-23T18:05:04;6.70;99.90
12223;DHT22;6174;49.058;8.524;2024-03-23T18:07:30;6.30;99.90
12223;DHT22;6174;49.058;8.524;2024-03-23T18:09:57;6.20;99.90
12223;DHT22;6174;49.058;8.524;2024-03-23T18:12:23;6.50;99.90
12223;DHT22;6174;49.058;8.524;2024-03-23T18:14:52;6.20;99.90
12223;DHT22;6174;49.058;8.524;2024-03-23T18:17:19;6.20;99.90
12223;DHT22;6174;49.058;8.524;2024-03-23T18:19:46;6.20;99.90
12223;DHT22;6174;49.058;8.524;2024-03-23T18:22:12;6.10;99.90
12223;DHT22;6174;49.058;8.524;2024-03-23T18:24:39;6.10;99.90
12223;DHT22;6174;49.058;8.524;2024-03-23T18:27:05;6.10;99.90
12223;DHT22;6174;49.058;8.524;2024-03-23T18:29:35;6.10;99.90
12223;DHT22;6174;49.058;8.524;2024-03-23T18:32:02;6.20;99.90
12223;DHT22;6174;49.058;8.524;2024-03-23T18:34:33;6.10;99.90
12223;DHT22;6174;49.058;8.524;2024-03-23T18:36:59;6.10;99.90
12223;DHT22;6174;49.058;8.524;2024-03-23T18:39:26;6.10;99.90
12223;DHT22;6174;49.058;8.524;2024-03-23T18:41:53;6.20;99.90
12223;DHT22;6174;49.058;8.524;2024-03-23T18:44:20;6.00;99.90
12223;DHT22;6174;49.058;8.524;2024-03-23T18:46:47;6.30;99.90
12223;DHT22;6174;49.058;8.524;2024-03-23T18:49:15;6.10;99.90
12223;DHT22;6174;49.058;8.524;2024-03-23T18:51:42;6.00;99.90
12223;DHT22;6174;49.058;8.524;2024-03-23T18:54:08;6.10;99.90
12223;DHT22;6174;49.058;8.524;2024-03-23T18:56:35;6.00;99.90
12223;DHT22;6174;49.058;8.524;2024-03-23T18:59:01;6.00;99.90
12223;DHT22;6174;49.058;8.524;2024-03-23T19:01:28;6.00;99.90
12223;DHT22;6174;49.058;8.524;2024-03-23T19:03:53;6.20;99.90
12223;DHT22;6174;49.058;8.524;2024-03-23T19:06:22;6.40;99.90
12223;DHT22;6174;49.058;8.524;2024-03-23T19:08:48;5.90;99.90
12223;DHT22;6174;49.058;8.524;2024-03-23T19:11:14;5.90;99.90
12223;DHT22;6174;49.058;8.524;2024-03-23T19:13:41;6.30;99.90
12223;DHT22;6174;49.058;8.524;2024-03-23T19:16:07;5.90;99.90
12223;DHT22;6174;49.058;8.524;2024-03-23T19:18:35;5.90;99.90
12223;DHT22;6174;49.058;8.524;2024-03-23T19:21:01;5.80;99.90
12223;DHT22;6174;49.058;8.524;2024-03-23T19:23:32;5.80;99.90
12223;DHT22;6174;49.058;8.524;2024-03-23T19:26:00;5.90;99.90
12223;DHT22;6174;49.058;8.524;2024-03-23T19:28:29;5.80;99.90
12223;DHT22;6174;49.058;8.524;2024-03-23T19:30:56;5.70;99.90
12223;DHT22;6174;49.058;8.524;2024-03-23T19:33:25;5.80;99.90
12223;DHT22;6174;49.058;8.524;2024-03-23T19:35:56;5.70;99.90
12223;DHT22;6174;49.058;8.524;2024-03-23T19:38:57;5.70;99.90
12223;DHT22;6174;49.058;8.524;2024-03-23T19:41:30;5.60;99.90
12223;DHT22;6174;49.058;8.524;2024-03-23T19:44:01;5.70;99.90
12223;DHT22;6174;49.058;8.524;2024-03-23T19:46:28;5.70;99.90
12223;DHT22;6174;49.058;8.524;2024-03-23T19:48:58;5.80;99.90
12223;DHT22;6174;49.058;8.524;2024-03-23T19:51:35;5.80;99.90
12223;DHT22;6174;49.058;8.524;2024-03-23T19:54:07;5.80;99.90
12223;DHT22;6174;49.058;8.524;2024-03-23T19:57:16;5.80;99.90
12223;DHT22;6174;49.058;8.524;2024-03-23T20:00:10;5.80;99.90
12223;DHT22;6174;49.058;8.524;2024-03-23T20:02:39;5.90;99.90
12223;DHT22;6174;49.058;8.524;2024-03-23T20:05:06;5.90;99.90
12223;DHT22;6174;49.058;8.524;2024-03-23T20:07:44;5.80;99.90
12223;DHT22;6174;49.058;8.524;2024-03-23T20:13:48;5.80;99.90
12223;DHT22;6174;49.058;8.524;2024-03-23T20:16:40;5.80;99.90
12223;DHT22;6174;49.058;8.524;2024-03-23T20:19:07;5.80;99.90
12223;DHT22;6174;49.058;8.524;2024-03-23T20:21:33;5.80;99.90
12223;DHT22;6174;49.058;8.524;2024-03-23T20:24:01;5.80;99.90
12223;DHT22;6174;49.058;8.524;2024-03-23T20:26:26;6.00;99.90
12223;DHT22;6174;49.058;8.524;2024-03-23T20:28:55;5.90;99.90
12223;DHT22;6174;49.058;8.524;2024-03-23T20:31:20;5.90;99.90
12223;DHT22;6174;49.058;8.524;2024-03-23T20:33:47;5.90;99.90
12223;DHT22;6174;49.058;8.524;2024-03-23T20:36:13;5.90;99.90
12223;DHT22;6174;49.058;8.524;2024-03-23T20:38:40;5.90;99.90
12223;DHT22;6174;49.058;8.524;2024-03-23T20:41:06;5.90;99.90
12223;DHT22;6174;49.058;8.524;2024-03-23T20:43:33;5.90;99.90
12223;DHT22;6174;49.058;8.524;2024-03-23T20:46:03;5.80;99.90
12223;DHT22;6174;49.058;8.524;2024-03-23T20:48:30;5.80;99.90
12223;DHT22;6174;49.058;8.524;2024-03-23T20:50:58;6.10;99.90
12223;DHT22;6174;49.058;8.524;2024-03-23T20:53:25;5.90;99.90
12223;DHT22;6174;49.058;8.524;2024-03-23T20:55:52;6.00;99.90
12223;DHT22;6174;49.058;8.524;2024-03-23T20:58:20;6.00;99.90
12223;DHT22;6174;49.058;8.524;2024-03-23T21:00:46;6.00;99.90
12223;DHT22;6174;49.058;8.524;2024-03-23T21:03:14;6.00;99.90
12223;DHT22;6174;49.058;8.524;2024-03-23T21:05:40;6.00;99.90
12223;DHT22;6174;49.058;8.524;2024-03-23T21:08:08;6.00;99.90
12223;DHT22;6174;49.058;8.524;2024-03-23T21:10:34;6.10;99.90
12223;DHT22;6174;49.058;8.524;2024-03-23T21:13:01;6.10;99.90
12223;DHT22;6174;49.058;8.524;2024-03-23T21:15:27;6.10;99.90
12223;DHT22;6174;49.058;8.524;2024-03-23T21:17:54;6.10;99.90
12223;DHT22;6174;49.058;8.524;2024-03-23T21:20:21;6.10;99.90
12223;DHT22;6174;49.058;8.524;2024-03-23T21:22:50;6.10;99.90
12223;DHT22;6174;49.058;8.524;2024-03-23T21:25:16;6.10;99.90
12223;DHT22;6174;49.058;8.524;2024-03-23T21:27:43;6.10;99.90
12223;DHT22;6174;49.058;8.524;2024-03-23T21:30:09;6.30;99.90
12223;DHT22;6174;49.058;8.524;2024-03-23T21:32:39;6.30;99.90
12223;DHT22;6174;49.058;8.524;2024-03-23T21:35:05;7.10;99.90
12223;DHT22;6174;49.058;8.524;2024-03-23T21:37:33;6.40;99.90
12223;DHT22;6174;49.058;8.524;2024-03-23T21:39:59;6.40;99.90
12223;DHT22;6174;49.058;8.524;2024-03-23T21:42:26;7.10;99.90
12223;DHT22;6174;49.058;8.524;2024-03-23T21:44:52;6.70;99.90
12223;DHT22;6174;49.058;8.524;2024-03-23T21:47:19;6.40;99.90
12223;DHT22;6174;49.058;8.524;2024-03-23T21:49:45;6.50;99.90
12223;DHT22;6174;49.058;8.524;2024-03-23T21:52:11;6.30;99.90
12223;DHT22;6174;49.058;8.524;2024-03-23T21:54:39;6.30;99.90
12223;DHT22;6174;49.058;8.524;2024-03-23T21:57:06;6.30;99.90
12223;DHT22;6174;49.058;8.524;2024-03-23T21:59:32;6.30;99.90
12223;DHT22;6174;49.058;8.524;2024-03-23T22:01:58;6.40;99.90
12223;DHT22;6174;49.058;8.524;2024-03-23T22:04:24;6.40;99.90
12223;DHT22;6174;49.058;8.524;2024-03-23T22:06:51;7.00;99.90
12223;DHT22;6174;49.058;8.524;2024-03-23T22:09:17;6.40;99.90
12223;DHT22;6174;49.058;8.524;2024-03-23T22:11:45;6.40;99.90
12223;DHT22;6174;49.058;8.524;2024-03-23T22:14:11;6.50;99.90
12223;DHT22;6174;49.058;8.524;2024-03-23T22:16:38;6.60;99.90
12223;DHT22;6174;49.058;8.524;2024-03-23T22:19:03;6.50;99.90
12223;DHT22;6174;49.058;8.524;2024-03-23T22:21:30;6.50;99.90
12223;DHT22;6174;49.058;8.524;2024-03-23T22:23:57;6.50;99.90
12223;DHT22;6174;49.058;8.524;2024-03-23T22:26:24;6.60;99.90
12223;DHT22;6174;49.058;8.524;2024-03-23T22:28:51;6.60;99.90
12223;DHT22;6174;49.058;8.524;2024-03-23T22:31:18;6.60;99.90
12223;DHT22;6174;49.058;8.524;2024-03-23T22:33:44;7.20;99.90
12223;DHT22;6174;49.058;8.524;2024-03-23T22:36:11;6.80;99.90
12223;DHT22;6174;49.058;8.524;2024-03-23T22:38:37;6.60;99.90
12223;DHT22;6174;49.058;8.524;2024-03-23T22:41:04;7.50;99.90
12223;DHT22;6174;49.058;8.524;2024-03-23T22:43:31;6.60;99.90
12223;DHT22;6174;49.058;8.524;2024-03-23T22:46:09;6.60;99.90
12223;DHT22;6174;49.058;8.524;2024-03-23T22:48:45;6.60;99.90
12223;DHT22;6174;49.058;8.524;2024-03-23T22:51:13;7.60;99.90
12223;DHT22;6174;49.058;8.524;2024-03-23T22:53:38;6.70;99.90
12223;DHT22;6174;49.058;8.524;2024-03-23T22:56:11;7.10;99.90
12223;DHT22;6174;49.058;8.524;2024-03-23T22:58:37;6.80;99.90
12223;DHT22;6174;49.058;8.524;2024-03-23T23:03:43;6.70;99.90
12223;DHT22;6174;49.058;8.524;2024-03-23T23:06:11;6.70;99.90
12223;DHT22;6174;49.058;8.524;2024-03-23T23:08:39;6.70;99.90
12223;DHT22;6174;49.058;8.524;2024-03-23T23:11:09;6.60;99.90
12223;DHT22;6174;49.058;8.524;2024-03-23T23:13:35;6.60;99.90
12223;DHT22;6174;49.058;8.524;2024-03-23T23:16:03;6.40;99.90
12223;DHT22;6174;49.058;8.524;2024-03-23T23:18:29;6.20;99.90
12223;DHT22;6174;49.058;8.524;2024-03-23T23:20:58;6.00;99.90
12223;DHT22;6174;49.058;8.524;2024-03-23T23:23:24;6.00;99.90
12223;DHT22;6174;49.058;8.524;2024-03-23T23:25:51;6.00;99.90
12223;DHT22;6174;49.058;8.524;2024-03-23T23:28:18;5.90;99.90
